sensor_id;sensor_type;location;lat;lon;timestamp;pressure;altitude;pressure_sealevel;temperature;humidity
42111;BME280;27766;52.174;5.456;2024-02-23T00:59:44;98586.16;;;6.53;100.00
42111;BME280;27766;52.174;5.456;2024-02-23T01:02:11;98587.88;;;6.60;100.00
42111;BME280;27766;52.174;5.456;2024-02-23T01:04:39;98602.44;;;6.52;100.00
42111;BME280;27766;52.174;5.456;2024-02-23T01:07:06;98600.72;;;6.46;100.00
42111;BME280;27766;52.174;5.456;2024-02-23T01:09:33;98605.00;;;6.38;100.00
42111;BME280;27766;52.174;5.456;2024-02-23T01:12:00;98608.44;;;6.09;100.00
42111;BME280;27766;52.174;5.456;2024-02-23T01:14:28;98609.31;;;6.17;100.00
42111;BME280;27766;52.174;5.456;2024-02-23T01:16:55;98611.00;;;6.20;100.00
42111;BME280;27766;52.174;5.456;2024-02-23T01:19:22;98600.69;;;5.88;100.00
42111;BME280;27766;52.174;5.456;2024-02-23T01:21:50;98610.94;;;5.84;100.00
42111;BME280;27766;52.174;5.456;2024-02-23T01:24:26;98623.81;;;5.89;100.00
42111;BME280;27766;52.174;5.456;2024-02-23T01:26:56;98626.44;;;6.03;100.00
42111;BME280;27766;52.174;5.456;2024-02-23T01:29:26;98635.84;;;6.13;100.00
42111;BME280;27766;52.174;5.456;2024-02-23T01:31:54;98656.38;;;6.07;100.00
42111;BME280;27766;52.174;5.456;2024-02-23T01:34:21;98650.31;;;5.76;100.00
42111;BME280;27766;52.174;5.456;2024-02-23T01:36:50;98647.72;;;5.69;100.00
42111;BME280;27766;52.174;5.456;2024-02-23T01:39:17;98657.94;;;5.57;100.00
42111;BME280;27766;52.174;5.456;2024-02-23T01:41:44;98681.88;;;5.53;100.00
42111;BME280;27766;52.174;5.456;2024-02-23T01:44:11;98669.06;;;5.59;100.00
42111;BME280;27766;52.174;5.456;2024-02-23T01:46:38;98671.66;;;5.64;100.00
42111;BME280;27766;52.174;5.456;2024-02-23T01:49:06;98668.22;;;5.60;100.00
42111;BME280;27766;52.174;5.456;2024-02-23T01:51:35;98640.88;;;5.70;100.00
42111;BME280;27766;52.174;5.456;2024-02-23T01:54:03;98666.47;;;5.47;100.00
42111;BME280;27766;52.174;5.456;2024-02-23T01:56:32;98687.03;;;5.53;100.00
42111;BME280;27766;52.174;5.456;2024-02-23T01:59:00;98689.63;;;5.62;100.00
42111;BME280;27766;52.174;5.456;2024-02-23T02:01:30;98688.78;;;5.68;100.00
42111;BME280;27766;52.174;5.456;2024-02-23T02:03:58;98675.97;;;5.74;100.00
42111;BME280;27766;52.174;5.456;2024-02-23T02:06:26;98678.50;;;5.66;100.00
42111;BME280;27766;52.174;5.456;2024-02-23T02:08:53;98685.44;;;5.92;100.00
42111;BME280;27766;52.174;5.456;2024-02-23T02:11:21;98690.56;;;5.92;100.00
42111;BME280;27766;52.174;5.456;2024-02-23T02:13:48;98682.91;;;6.06;100.00
42111;BME280;27766;52.174;5.456;2024-02-23T02:16:15;98675.16;;;5.95;100.00
42111;BME280;27766;52.174;5.456;2024-02-23T02:18:42;98685.47;;;6.01;100.00
42111;BME280;27766;52.174;5.456;2024-02-23T02:21:11;98684.63;;;6.01;100.00
42111;BME280;27766;52.174;5.456;2024-02-23T02:23:39;98684.63;;;6.01;100.00
42111;BME280;27766;52.174;5.456;2024-02-23T02:26:06;98684.66;;;6.23;100.00
42111;BME280;27766;52.174;5.456;2024-02-23T02:28:33;98675.25;;;6.26;100.00
42111;BME280;27766;52.174;5.456;2024-02-23T02:31:01;98680.38;;;6.15;100.00
42111;BME280;27766;52.174;5.456;2024-02-23T02:33:28;98683.78;;;6.04;100.00
42111;BME280;27766;52.174;5.456;2024-02-23T02:35:55;98689.78;;;6.13;100.00
42111;BME280;27766;52.174;5.456;2024-02-23T02:38:23;98690.63;;;6.05;100.00
42111;BME280;27766;52.174;5.456;2024-02-23T02:40:50;98692.28;;;5.98;100.00
42111;BME280;27766;52.174;5.456;2024-02-23T02:43:17;98693.19;;;6.03;100.00
42111;BME280;27766;52.174;5.456;2024-02-23T02:45:45;98697.41;;;5.89;100.00
42111;BME280;27766;52.174;5.456;2024-02-23T02:48:12;98699.13;;;5.97;100.00
42111;BME280;27766;52.174;5.456;2024-02-23T02:50:39;98695.75;;;6.00;100.00
42111;BME280;27766;52.174;5.456;2024-02-23T02:53:07;98697.41;;;5.89;100.00
42111;BME280;27766;52.174;5.456;2024-02-23T02:55:34;98700.78;;;5.80;100.00
42111;BME280;27766;52.174;5.456;2024-02-23T02:58:01;98711.09;;;5.95;100.00
42111;BME280;27766;52.174;5.456;2024-02-23T03:00:28;98699.13;;;5.90;100.00
42111;BME280;27766;52.174;5.456;2024-02-23T03:02:58;98702.59;;;5.99;100.00
42111;BME280;27766;52.174;5.456;2024-02-23T03:05:25;98702.63;;;6.06;100.00
42111;BME280;27766;52.174;5.456;2024-02-23T03:07:52;98705.09;;;5.87;100.00
42111;BME280;27766;52.174;5.456;2024-02-23T03:10:20;98712.00;;;5.99;100.00
42111;BME280;27766;52.174;5.456;2024-02-23T03:12:47;98709.41;;;5.96;100.00
42111;BME280;27766;52.174;5.456;2024-02-23T03:15:14;98713.69;;;5.94;100.00
42111;BME280;27766;52.174;5.456;2024-02-23T03:17:42;98730.81;;;5.98;100.00
42111;BME280;27766;52.174;5.456;2024-02-23T03:20:11;98733.34;;;5.87;100.00
42111;BME280;27766;52.174;5.456;2024-02-23T03:22:39;98741.09;;;5.95;100.00
42111;BME280;27766;52.174;5.456;2024-02-23T03:25:07;98729.06;;;5.88;100.00
42111;BME280;27766;52.174;5.456;2024-02-23T03:27:37;98732.50;;;5.93;100.00
42111;BME280;27766;52.174;5.456;2024-02-23T03:30:05;98727.38;;;5.91;100.00
42111;BME280;27766;52.174;5.456;2024-02-23T03:32:32;98738.50;;;5.96;100.00
42111;BME280;27766;52.174;5.456;2024-02-23T03:35:04;98737.63;;;5.94;100.00
42111;BME280;27766;52.174;5.456;2024-02-23T03:37:32;98737.59;;;5.83;100.00
42111;BME280;27766;52.174;5.456;2024-02-23T03:39:59;98741.94;;;5.92;100.00
42111;BME280;27766;52.174;5.456;2024-02-23T03:42:27;98755.59;;;5.85;100.00
42111;BME280;27766;52.174;5.456;2024-02-23T03:44:54;98755.47;;;5.63;100.00
42111;BME280;27766;52.174;5.456;2024-02-23T03:47:22;98751.28;;;5.79;100.00
42111;BME280;27766;52.174;5.456;2024-02-23T03:49:49;98763.31;;;5.85;100.00
42111;BME280;27766;52.174;5.456;2024-02-23T03:52:16;98759.78;;;5.63;100.00
42111;BME280;27766;52.174;5.456;2024-02-23T03:54:43;98770.97;;;5.79;100.00
42111;BME280;27766;52.174;5.456;2024-02-23T03:57:11;98768.34;;;5.68;100.00
42111;BME280;27766;52.174;5.456;2024-02-23T03:59:38;98756.41;;;5.75;100.00
42111;BME280;27766;52.174;5.456;2024-02-23T04:02:05;98752.94;;;5.66;100.00
42111;BME280;27766;52.174;5.456;2024-02-23T04:04:33;98758.88;;;5.56;100.00
42111;BME280;27766;52.174;5.456;2024-02-23T04:07:00;98759.81;;;5.66;100.00
42111;BME280;27766;52.174;5.456;2024-02-23T04:09:28;98762.38;;;5.74;100.00
42111;BME280;27766;52.174;5.456;2024-02-23T04:11:55;98770.91;;;5.68;100.00
42111;BME280;27766;52.174;5.456;2024-02-23T04:14:23;98771.81;;;5.76;100.00
42111;BME280;27766;52.174;5.456;2024-02-23T04:16:50;98770.09;;;5.70;100.00
42111;BME280;27766;52.174;5.456;2024-02-23T04:19:17;98766.63;;;5.65;100.00
42111;BME280;27766;52.174;5.456;2024-02-23T04:21:44;98769.22;;;5.71;100.00
42111;BME280;27766;52.174;5.456;2024-02-23T04:24:12;98780.31;;;5.63;100.00
42111;BME280;27766;52.174;5.456;2024-02-23T04:26:39;98779.47;;;5.62;100.00
42111;BME280;27766;52.174;5.456;2024-02-23T04:29:06;98788.03;;;5.67;100.00
42111;BME280;27766;52.174;5.456;2024-02-23T04:31:36;98784.59;;;5.64;100.00
42111;BME280;27766;52.174;5.456;2024-02-23T04:34:04;98783.81;;;5.74;100.00
42111;BME280;27766;52.174;5.456;2024-02-23T04:36:31;98789.75;;;5.68;100.00
42111;BME280;27766;52.174;5.456;2024-02-23T04:38:58;98799.16;;;5.73;100.00
42111;BME280;27766;52.174;5.456;2024-02-23T04:41:25;98800.84;;;5.61;100.00
42111;BME280;27766;52.174;5.456;2024-02-23T04:43:53;98797.47;;;5.73;100.00
42111;BME280;27766;52.174;5.456;2024-02-23T04:46:28;98801.75;;;5.73;100.00
42111;BME280;27766;52.174;5.456;2024-02-23T04:48:57;98799.19;;;5.77;100.00
42111;BME280;27766;52.174;5.456;2024-02-23T04:51:24;98806.03;;;5.72;100.00
42111;BME280;27766;52.174;5.456;2024-02-23T04:53:52;98816.38;;;5.89;100.00
42111;BME280;27766;52.174;5.456;2024-02-23T04:56:19;98816.31;;;5.77;100.00
42111;BME280;27766;52.174;5.456;2024-02-23T04:58:51;98810.28;;;5.68;100.00
42111;BME280;27766;52.174;5.456;2024-02-23T05:01:18;98810.34;;;5.78;100.00
42111;BME280;27766;52.174;5.456;2024-02-23T05:03:46;98806.94;;;5.88;100.00
42111;BME280;27766;52.174;5.456;2024-02-23T05:06:14;98813.81;;;5.86;100.00
42111;BME280;27766;52.174;5.456;2024-02-23T05:08:42;98803.56;;;5.92;100.00
42111;BME280;27766;52.174;5.456;2024-02-23T05:11:09;98807.91;;;6.01;100.00
42111;BME280;27766;52.174;5.456;2024-02-23T05:13:36;98817.31;;;6.00;100.00
42111;BME280;27766;52.174;5.456;2024-02-23T05:16:06;98809.53;;;5.94;100.00
42111;BME280;27766;52.174;5.456;2024-02-23T05:18:33;98819.03;;;6.06;100.00
42111;BME280;27766;52.174;5.456;2024-02-23T05:21:01;98815.56;;;5.93;100.00
42111;BME280;27766;52.174;5.456;2024-02-23T05:23:28;98813.06;;;6.06;100.00
42111;BME280;27766;52.174;5.456;2024-02-23T05:25:55;98810.50;;;6.09;100.00
42111;BME280;27766;52.174;5.456;2024-02-23T05:28:23;98817.28;;;5.97;100.00
42111;BME280;27766;52.174;5.456;2024-02-23T05:30:51;98808.69;;;5.95;100.00
42111;BME280;27766;52.174;5.456;2024-02-23T05:33:18;98812.19;;;6.10;100.00
42111;BME280;27766;52.174;5.456;2024-02-23T05:35:48;98814.78;;;6.08;100.00
42111;BME280;27766;52.174;5.456;2024-02-23T05:38:19;98822.50;;;6.14;100.00
42111;BME280;27766;52.174;5.456;2024-02-23T05:40:47;98818.22;;;6.16;100.00
42111;BME280;27766;52.174;5.456;2024-02-23T05:43:15;98816.50;;;6.14;100.00
42111;BME280;27766;52.174;5.456;2024-02-23T05:45:43;98813.97;;;6.26;100.00
42111;BME280;27766;52.174;5.456;2024-02-23T05:48:12;98817.41;;;6.30;100.00
42111;BME280;27766;52.174;5.456;2024-02-23T05:50:39;98821.66;;;6.15;100.00
42111;BME280;27766;52.174;5.456;2024-02-23T05:53:07;98821.66;;;6.14;100.00
42111;BME280;27766;52.174;5.456;2024-02-23T05:55:34;98824.28;;;6.29;100.00
42111;BME280;27766;52.174;5.456;2024-02-23T05:58:01;98824.28;;;6.31;100.00
42111;BME280;27766;52.174;5.456;2024-02-23T06:00:30;98819.13;;;6.31;100.00
42111;BME280;27766;52.174;5.456;2024-02-23T06:02:58;98816.56;;;6.31;100.00
42111;BME280;27766;52.174;5.456;2024-02-23T06:05:25;98822.59;;;6.44;100.00
42111;BME280;27766;52.174;5.456;2024-02-23T06:07:55;98822.59;;;6.45;100.00
42111;BME280;27766;52.174;5.456;2024-02-23T06:10:22;98814.84;;;6.36;100.00
42111;BME280;27766;52.174;5.456;2024-02-23T06:12:50;98815.72;;;6.37;100.00
42111;BME280;27766;52.174;5.456;2024-02-23T06:15:20;98825.13;;;6.28;100.00
42111;BME280;27766;52.174;5.456;2024-02-23T06:17:48;98825.16;;;6.39;100.00
42111;BME280;27766;52.174;5.456;2024-02-23T06:20:15;98827.78;;;6.59;100.00
42111;BME280;27766;52.174;5.456;2024-02-23T06:22:43;98819.13;;;6.32;100.00
42111;BME280;27766;52.174;5.456;2024-02-23T06:25:10;98821.75;;;6.39;100.00
42111;BME280;27766;52.174;5.456;2024-02-23T06:27:38;98841.41;;;6.38;100.00
42111;BME280;27766;52.174;5.456;2024-02-23T06:30:06;98832.88;;;6.44;100.00
42111;BME280;27766;52.174;5.456;2024-02-23T06:32:33;98835.47;;;6.53;100.00
42111;BME280;27766;52.174;5.456;2024-02-23T06:35:01;98835.44;;;6.42;100.00
42111;BME280;27766;52.174;5.456;2024-02-23T06:37:29;98836.28;;;6.37;100.00
42111;BME280;27766;52.174;5.456;2024-02-23T06:39:59;98830.28;;;6.39;100.00
42111;BME280;27766;52.174;5.456;2024-02-23T06:42:26;98837.13;;;6.37;100.00
42111;BME280;27766;52.174;5.456;2024-02-23T06:44:54;98837.19;;;6.54;100.00
42111;BME280;27766;52.174;5.456;2024-02-23T06:47:21;98844.88;;;6.39;100.00
42111;BME280;27766;52.174;5.456;2024-02-23T06:49:49;98856.00;;;6.44;100.00
42111;BME280;27766;52.174;5.456;2024-02-23T06:52:16;98841.44;;;6.44;100.00
42111;BME280;27766;52.174;5.456;2024-02-23T06:54:44;98843.16;;;6.48;100.00
42111;BME280;27766;52.174;5.456;2024-02-23T06:57:12;98833.75;;;6.51;100.00
42111;BME280;27766;52.174;5.456;2024-02-23T06:59:39;98839.72;;;6.48;100.00
42111;BME280;27766;52.174;5.456;2024-02-23T07:02:06;98833.75;;;6.52;100.00
42111;BME280;27766;52.174;5.456;2024-02-23T07:04:33;98837.22;;;6.59;100.00
42111;BME280;27766;52.174;5.456;2024-02-23T07:07:01;98831.22;;;6.71;100.00
42111;BME280;27766;52.174;5.456;2024-02-23T07:09:34;98837.19;;;6.63;100.00
42111;BME280;27766;52.174;5.456;2024-02-23T07:12:01;98841.47;;;6.64;100.00
42111;BME280;27766;52.174;5.456;2024-02-23T07:14:28;98834.63;;;6.62;100.00
42111;BME280;27766;52.174;5.456;2024-02-23T07:16:58;98840.66;;;6.79;100.00
42111;BME280;27766;52.174;5.456;2024-02-23T07:19:25;98832.94;;;6.75;100.00
42111;BME280;27766;52.174;5.456;2024-02-23T07:21:52;98845.78;;;6.72;100.00
42111;BME280;27766;52.174;5.456;2024-02-23T07:24:20;98844.06;;;6.75;100.00
42111;BME280;27766;52.174;5.456;2024-02-23T07:26:47;98846.66;;;6.83;100.00
42111;BME280;27766;52.174;5.456;2024-02-23T07:29:14;98841.50;;;6.86;100.00
42111;BME280;27766;52.174;5.456;2024-02-23T07:31:44;98848.38;;;6.78;100.00
42111;BME280;27766;52.174;5.456;2024-02-23T07:34:11;98833.81;;;6.89;100.00
42111;BME280;27766;52.174;5.456;2024-02-23T07:36:39;98828.69;;;6.97;100.00
42111;BME280;27766;52.174;5.456;2024-02-23T07:39:06;98844.97;;;7.04;100.00
42111;BME280;27766;52.174;5.456;2024-02-23T07:41:33;98834.69;;;6.97;100.00
42111;BME280;27766;52.174;5.456;2024-02-23T07:44:00;98837.25;;;6.94;100.00
42111;BME280;27766;52.174;5.456;2024-02-23T07:46:28;98821.84;;;7.01;100.00
42111;BME280;27766;52.174;5.456;2024-02-23T07:48:55;98822.66;;;7.03;100.00
42111;BME280;27766;52.174;5.456;2024-02-23T07:51:22;98820.09;;;6.96;100.00
42111;BME280;27766;52.174;5.456;2024-02-23T07:53:50;98816.66;;;7.08;100.00
42111;BME280;27766;52.174;5.456;2024-02-23T07:56:17;98815.81;;;7.20;100.00
42111;BME280;27766;52.174;5.456;2024-02-23T07:58:44;98813.25;;;7.08;100.00
42111;BME280;27766;52.174;5.456;2024-02-23T08:01:12;98810.66;;;7.05;100.00
42111;BME280;27766;52.174;5.456;2024-02-23T08:03:39;98803.81;;;7.07;100.00
42111;BME280;27766;52.174;5.456;2024-02-23T08:06:10;98809.81;;;7.01;100.00
42111;BME280;27766;52.174;5.456;2024-02-23T08:08:37;98807.25;;;7.00;100.00
42111;BME280;27766;52.174;5.456;2024-02-23T08:11:04;98805.50;;;7.02;100.00
42111;BME280;27766;52.174;5.456;2024-02-23T08:13:32;98803.81;;;7.07;100.00
42111;BME280;27766;52.174;5.456;2024-02-23T08:15:59;98796.09;;;7.02;100.00
42111;BME280;27766;52.174;5.456;2024-02-23T08:18:26;98807.25;;;7.00;100.00
42111;BME280;27766;52.174;5.456;2024-02-23T08:20:54;98800.38;;;6.95;100.00
42111;BME280;27766;52.174;5.456;2024-02-23T08:23:21;98795.25;;;6.97;100.00
42111;BME280;27766;52.174;5.456;2024-02-23T08:25:50;98807.25;;;7.00;100.00
42111;BME280;27766;52.174;5.456;2024-02-23T08:28:17;98796.13;;;7.01;100.00
42111;BME280;27766;52.174;5.456;2024-02-23T08:30:45;98791.78;;;7.24;100.00
42111;BME280;27766;52.174;5.456;2024-02-23T08:33:12;98793.50;;;7.30;100.00
42111;BME280;27766;52.174;5.456;2024-02-23T08:35:39;98795.22;;;7.26;100.00
42111;BME280;27766;52.174;5.456;2024-02-23T08:38:07;98791.78;;;7.27;100.00
42111;BME280;27766;52.174;5.456;2024-02-23T08:40:34;98796.09;;;7.27;100.00
42111;BME280;27766;52.174;5.456;2024-02-23T08:43:01;98767.81;;;7.11;100.00
42111;BME280;27766;52.174;5.456;2024-02-23T08:45:30;98791.78;;;7.18;100.00
42111;BME280;27766;52.174;5.456;2024-02-23T08:47:57;98783.22;;;7.22;100.00
42111;BME280;27766;52.174;5.456;2024-02-23T08:50:25;98785.78;;;7.19;100.00
42111;BME280;27766;52.174;5.456;2024-02-23T08:52:52;98778.91;;;7.24;100.00
42111;BME280;27766;52.174;5.456;2024-02-23T08:55:20;98780.63;;;7.33;100.00
42111;BME280;27766;52.174;5.456;2024-02-23T08:57:48;98778.91;;;7.24;100.00
42111;BME280;27766;52.174;5.456;2024-02-23T09:00:15;98787.47;;;7.33;100.00
42111;BME280;27766;52.174;5.456;2024-02-23T09:02:44;98781.50;;;7.21;100.00
42111;BME280;27766;52.174;5.456;2024-02-23T09:05:12;98778.09;;;7.11;100.00
42111;BME280;27766;52.174;5.456;2024-02-23T09:07:39;98786.66;;;7.03;100.00
42111;BME280;27766;52.174;5.456;2024-02-23T09:10:07;98775.50;;;7.22;100.00
42111;BME280;27766;52.174;5.456;2024-02-23T09:12:35;98794.38;;;7.21;100.00
42111;BME280;27766;52.174;5.456;2024-02-23T09:15:02;98790.91;;;7.25;100.00
42111;BME280;27766;52.174;5.456;2024-02-23T09:17:30;98789.22;;;7.27;100.00
42111;BME280;27766;52.174;5.456;2024-02-23T09:19:57;98798.66;;;7.25;100.00
42111;BME280;27766;52.174;5.456;2024-02-23T09:22:24;98794.38;;;7.21;100.00
42111;BME280;27766;52.174;5.456;2024-02-23T09:24:52;98802.09;;;7.31;100.00
42111;BME280;27766;52.174;5.456;2024-02-23T09:27:22;98796.91;;;7.34;100.00
42111;BME280;27766;52.174;5.456;2024-02-23T09:29:49;98803.78;;;7.30;100.00
42111;BME280;27766;52.174;5.456;2024-02-23T09:32:17;98812.38;;;7.24;100.00
42111;BME280;27766;52.174;5.456;2024-02-23T09:34:44;98802.97;;;7.19;100.00
42111;BME280;27766;52.174;5.456;2024-02-23T09:37:11;98791.75;;;7.40;100.00
42111;BME280;27766;52.174;5.456;2024-02-23T09:39:39;98810.66;;;7.25;100.00
42111;BME280;27766;52.174;5.456;2024-02-23T09:42:10;98791.78;;;7.26;100.00
42111;BME280;27766;52.174;5.456;2024-02-23T09:44:39;98803.81;;;7.28;100.00
42111;BME280;27766;52.174;5.456;2024-02-23T09:47:08;98809.75;;;7.49;100.00
42111;BME280;27766;52.174;5.456;2024-02-23T09:49:39;98805.47;;;7.48;100.00
42111;BME280;27766;52.174;5.456;2024-02-23T09:52:08;98808.91;;;7.53;100.00
42111;BME280;27766;52.174;5.456;2024-02-23T09:54:38;98810.66;;;7.25;100.00
42111;BME280;27766;52.174;5.456;2024-02-23T09:57:08;98816.66;;;7.38;100.00
42111;BME280;27766;52.174;5.456;2024-02-23T09:59:36;98818.38;;;7.40;100.00
42111;BME280;27766;52.174;5.456;2024-02-23T10:02:07;98829.53;;;7.33;100.00
42111;BME280;27766;52.174;5.456;2024-02-23T10:04:36;98820.09;;;7.32;100.00
42111;BME280;27766;52.174;5.456;2024-02-23T10:07:03;98829.53;;;7.35;100.00
42111;BME280;27766;52.174;5.456;2024-02-23T10:09:31;98821.78;;;7.50;100.00
42111;BME280;27766;52.174;5.456;2024-02-23T10:11:59;98811.44;;;7.66;100.00
42111;BME280;27766;52.174;5.456;2024-02-23T10:14:26;98815.69;;;7.87;100.00
42111;BME280;27766;52.174;5.456;2024-02-23T10:16:54;98832.00;;;7.89;100.00
42111;BME280;27766;52.174;5.456;2024-02-23T10:19:22;98838.03;;;7.83;100.00
42111;BME280;27766;52.174;5.456;2024-02-23T10:21:49;98838.78;;;8.10;100.00
42111;BME280;27766;52.174;5.456;2024-02-23T10:24:17;98830.25;;;7.94;100.00
42111;BME280;27766;52.174;5.456;2024-02-23T10:26:44;98831.97;;;7.92;100.00
42111;BME280;27766;52.174;5.456;2024-02-23T10:29:12;98835.41;;;7.96;100.00
42111;BME280;27766;52.174;5.456;2024-02-23T10:31:46;98840.56;;;7.94;100.00
42111;BME280;27766;52.174;5.456;2024-02-23T10:34:19;98846.53;;;8.01;100.00
42111;BME280;27766;52.174;5.456;2024-02-23T10:36:46;98841.41;;;7.98;100.00
42111;BME280;27766;52.174;5.456;2024-02-23T10:39:16;98856.91;;;7.85;100.00
42111;BME280;27766;52.174;5.456;2024-02-23T10:41:57;98849.09;;;8.05;100.00
42111;BME280;27766;52.174;5.456;2024-02-23T10:44:28;98850.84;;;7.97;100.00
42111;BME280;27766;52.174;5.456;2024-02-23T10:46:55;98877.47;;;7.99;100.00
42111;BME280;27766;52.174;5.456;2024-02-23T10:49:25;98870.59;;;7.93;100.00
42111;BME280;27766;52.174;5.456;2024-02-23T10:51:54;98859.50;;;7.76;100.00
42111;BME280;27766;52.174;5.456;2024-02-23T10:54:22;98877.53;;;7.76;100.00
42111;BME280;27766;52.174;5.456;2024-02-23T10:56:50;98872.38;;;7.71;100.00
42111;BME280;27766;52.174;5.456;2024-02-23T10:59:18;98880.09;;;7.78;100.00
42111;BME280;27766;52.174;5.456;2024-02-23T11:01:53;98879.22;;;7.85;100.00
42111;BME280;27766;52.174;5.456;2024-02-23T11:04:25;98874.06;;;7.92;100.00
42111;BME280;27766;52.174;5.456;2024-02-23T11:06:55;98883.44;;;8.09;100.00
42111;BME280;27766;52.174;5.456;2024-02-23T11:09:24;98888.59;;;8.17;100.00
42111;BME280;27766;52.174;5.456;2024-02-23T11:11:55;98892.88;;;8.19;100.00
42111;BME280;27766;52.174;5.456;2024-02-23T11:14:37;98891.13;;;8.24;100.00
42111;BME280;27766;52.174;5.456;2024-02-23T11:17:05;98886.75;;;8.56;100.00
42111;BME280;27766;52.174;5.456;2024-02-23T11:19:39;98878.16;;;8.46;100.00
42111;BME280;27766;52.174;5.456;2024-02-23T11:22:09;98874.75;;;8.35;100.00
42111;BME280;27766;52.174;5.456;2024-02-23T11:24:49;98882.50;;;8.35;100.00
42111;BME280;27766;52.174;5.456;2024-02-23T11:27:23;98887.63;;;8.44;100.00
42111;BME280;27766;52.174;5.456;2024-02-23T11:30:08;98887.63;;;8.50;100.00
42111;BME280;27766;52.174;5.456;2024-02-23T11:35:11;98883.28;;;8.55;100.00
42111;BME280;27766;52.174;5.456;2024-02-23T11:37:52;98878.94;;;8.67;100.00
42111;BME280;27766;52.174;5.456;2024-02-23T11:40:27;98878.94;;;8.68;100.00
42111;BME280;27766;52.174;5.456;2024-02-23T11:42:55;98884.00;;;8.87;100.00
42111;BME280;27766;52.174;5.456;2024-02-23T11:45:28;98878.88;;;8.75;100.00
42111;BME280;27766;52.174;5.456;2024-02-23T11:47:55;98886.53;;;8.90;100.00
42111;BME280;27766;52.174;5.456;2024-02-23T11:50:22;98885.72;;;8.88;100.00
42111;BME280;27766;52.174;5.456;2024-02-23T11:52:49;98889.06;;;8.98;100.00
42111;BME280;27766;52.174;5.456;2024-02-23T11:55:21;98908.03;;;8.91;100.00
42111;BME280;27766;52.174;5.456;2024-02-23T11:57:51;98889.16;;;8.82;100.00
42111;BME280;27766;52.174;5.456;2024-02-23T12:00:31;98884.03;;;8.79;100.00
42111;BME280;27766;52.174;5.456;2024-02-23T12:02:59;98898.72;;;8.65;100.00
42111;BME280;27766;52.174;5.456;2024-02-23T12:05:26;98907.22;;;8.79;100.00
42111;BME280;27766;52.174;5.456;2024-02-23T12:07:54;98896.00;;;8.86;100.00
42111;BME280;27766;52.174;5.456;2024-02-23T12:10:23;98912.41;;;8.75;100.00
42111;BME280;27766;52.174;5.456;2024-02-23T12:12:53;98901.34;;;8.55;100.00
42111;BME280;27766;52.174;5.456;2024-02-23T12:15:21;98915.91;;;8.63;100.00
42111;BME280;27766;52.174;5.456;2024-02-23T12:17:49;98907.22;;;8.84;100.00
42111;BME280;27766;52.174;5.456;2024-02-23T12:20:17;98912.31;;;8.98;100.00
42111;BME280;27766;52.174;5.456;2024-02-23T12:22:45;98913.88;;;9.17;100.00
42111;BME280;27766;52.174;5.456;2024-02-23T12:25:13;98901.97;;;8.95;100.00
42111;BME280;27766;52.174;5.456;2024-02-23T12:27:41;98912.31;;;8.96;100.00
42111;BME280;27766;52.174;5.456;2024-02-23T12:30:15;98920.88;;;8.98;100.00
42111;BME280;27766;52.174;5.456;2024-02-23T12:32:45;98913.97;;;9.02;100.00
42111;BME280;27766;52.174;5.456;2024-02-23T12:35:14;98914.03;;;8.96;100.00
42111;BME280;27766;52.174;5.456;2024-02-23T12:37:43;98919.19;;;8.99;100.00
42111;BME280;27766;52.174;5.456;2024-02-23T12:40:11;98922.66;;;8.89;100.00
42111;BME280;27766;52.174;5.456;2024-02-23T12:42:39;98921.75;;;8.99;100.00
42111;BME280;27766;52.174;5.456;2024-02-23T12:45:07;98925.13;;;9.06;100.00
42111;BME280;27766;52.174;5.456;2024-02-23T12:47:34;98929.31;;;9.27;100.00
42111;BME280;27766;52.174;5.456;2024-02-23T12:50:01;98926.84;;;9.08;100.00
42111;BME280;27766;52.174;5.456;2024-02-23T12:52:29;98931.16;;;9.05;100.00
42111;BME280;27766;52.174;5.456;2024-02-23T12:54:56;98937.19;;;9.05;100.00
42111;BME280;27766;52.174;5.456;2024-02-23T12:57:24;98936.41;;;8.95;100.00
42111;BME280;27766;52.174;5.456;2024-02-23T12:59:51;98941.56;;;8.92;100.00
42111;BME280;27766;52.174;5.456;2024-02-23T13:02:18;98937.25;;;8.93;100.00
42111;BME280;27766;52.174;5.456;2024-02-23T13:04:46;98940.59;;;9.13;100.00
42111;BME280;27766;52.174;5.456;2024-02-23T13:07:17;98943.19;;;9.12;100.00
42111;BME280;27766;52.174;5.456;2024-02-23T13:09:44;98943.22;;;9.01;100.00
42111;BME280;27766;52.174;5.456;2024-02-23T13:12:12;98946.66;;;9.05;100.00
42111;BME280;27766;52.174;5.456;2024-02-23T13:14:39;98944.03;;;9.15;100.00
42111;BME280;27766;52.174;5.456;2024-02-23T13:17:06;98953.44;;;9.24;100.00
42111;BME280;27766;52.174;5.456;2024-02-23T13:19:34;98959.47;;;9.22;100.00
42111;BME280;27766;52.174;5.456;2024-02-23T13:22:01;98969.75;;;9.28;100.00
42111;BME280;27766;52.174;5.456;2024-02-23T13:24:28;98962.03;;;9.26;100.00
42111;BME280;27766;52.174;5.456;2024-02-23T13:26:55;98955.88;;;9.41;100.00
42111;BME280;27766;52.174;5.456;2024-02-23T13:29:23;98968.72;;;9.54;100.00
42111;BME280;27766;52.174;5.456;2024-02-23T13:31:50;98966.19;;;9.46;100.00
42111;BME280;27766;52.174;5.456;2024-02-23T13:34:19;98957.69;;;9.28;100.00
42111;BME280;27766;52.174;5.456;2024-02-23T13:36:46;98967.94;;;9.39;100.00
42111;BME280;27766;52.174;5.456;2024-02-23T13:39:14;98967.88;;;9.48;100.00
42111;BME280;27766;52.174;5.456;2024-02-23T13:41:41;98965.13;;;9.69;100.00
42111;BME280;27766;52.174;5.456;2024-02-23T13:44:09;98958.31;;;9.64;100.00
42111;BME280;27766;52.174;5.456;2024-02-23T13:46:38;98957.41;;;9.64;100.00
42111;BME280;27766;52.174;5.456;2024-02-23T13:49:07;98970.53;;;9.41;100.00
42111;BME280;27766;52.174;5.456;2024-02-23T13:51:34;98972.06;;;9.62;100.00
42111;BME280;27766;52.174;5.456;2024-02-23T13:54:02;98953.03;;;9.74;100.00
42111;BME280;27766;52.174;5.456;2024-02-23T13:56:32;98965.91;;;9.78;100.00
42111;BME280;27766;52.174;5.456;2024-02-23T13:58:59;98978.91;;;9.68;100.00
42111;BME280;27766;52.174;5.456;2024-02-23T14:01:26;98979.84;;;9.63;100.00
42111;BME280;27766;52.174;5.456;2024-02-23T14:03:54;98974.59;;;9.70;100.00
42111;BME280;27766;52.174;5.456;2024-02-23T14:06:21;98980.50;;;9.84;100.00